createdAt,value
2022-10-30T00:01:04.181Z,7.45
2022-10-30T00:03:30.541Z,7.20
2022-10-30T00:05:56.855Z,6.80
2022-10-30T00:08:23.682Z,6.75
2022-10-30T00:10:49.985Z,7.78
2022-10-30T00:13:17.593Z,8.35
2022-10-30T00:15:54.033Z,7.38
2022-10-30T00:18:20.700Z,7.15
2022-10-30T00:20:47.856Z,7.60
2022-10-30T00:23:14.474Z,8.13
2022-10-30T00:25:40.796Z,7.80
2022-10-30T00:28:07.598Z,7.70
2022-10-30T00:30:34.628Z,6.60
2022-10-30T00:33:01.415Z,6.70
2022-10-30T00:35:28.062Z,7.35
2022-10-30T00:37:54.593Z,7.35
2022-10-30T00:40:21.850Z,7.38
2022-10-30T00:42:48.245Z,6.82
2022-10-30T00:45:17.470Z,7.28
2022-10-30T00:47:51.680Z,7.20
2022-10-30T00:50:36.804Z,6.85
2022-10-30T00:53:14.446Z,6.80
2022-10-30T00:55:47.760Z,7.63
2022-10-30T00:58:19.452Z,7.03
2022-10-30T01:00:50.736Z,7.72
2022-10-30T01:03:19.046Z,7.65
2022-10-30T01:05:50.009Z,6.75
2022-10-30T01:08:16.442Z,7.65
2022-10-30T01:10:43.601Z,7.22
2022-10-30T01:13:10.851Z,6.13
2022-10-30T01:15:46.836Z,6.72
2022-10-30T01:18:46.298Z,7.22
2022-10-30T01:21:33.654Z,7.80
2022-10-30T01:24:11.549Z,7.65
2022-10-30T01:27:18.970Z,7.43
2022-10-30T01:29:50.749Z,7.45
2022-10-30T01:32:23.256Z,7.82
2022-10-30T01:35:08.232Z,7.38
2022-10-30T01:37:43.941Z,7.65
2022-10-30T01:40:13.368Z,6.72
2022-10-30T01:42:54.558Z,7.72
2022-10-30T01:45:51.813Z,7.35
2022-10-30T01:48:42.893Z,7.63
2022-10-30T01:51:50.118Z,7.00
2022-10-30T01:54:36.793Z,7.30
2022-10-30T01:57:21.472Z,7.03
2022-10-30T01:59:59.871Z,7.28
2022-10-30T02:02:26.428Z,7.05
2022-10-30T02:04:53.183Z,7.15
2022-10-30T02:07:19.538Z,6.93
2022-10-30T02:09:45.939Z,7.88
2022-10-30T02:12:13.765Z,6.85
2022-10-30T02:14:45.014Z,7.85
2022-10-30T02:17:12.136Z,6.88
2022-10-30T02:19:38.509Z,7.43
2022-10-30T02:22:05.454Z,7.65
2022-10-30T02:24:32.291Z,6.90
2022-10-30T02:26:58.794Z,7.70
2022-10-30T02:29:25.091Z,8.02
2022-10-30T02:31:51.487Z,7.88
2022-10-30T02:34:17.799Z,7.78
2022-10-30T02:36:44.198Z,7.57
2022-10-30T02:39:10.682Z,7.82
2022-10-30T02:41:37.549Z,7.32
2022-10-30T02:44:05.605Z,6.93
2022-10-30T02:46:32.501Z,7.10
2022-10-30T02:48:58.854Z,7.10
2022-10-30T02:51:25.241Z,7.80
2022-10-30T02:53:51.552Z,7.35
2022-10-30T02:56:17.882Z,7.55
2022-10-30T02:58:44.184Z,7.07
2022-10-30T03:01:16.005Z,7.15
2022-10-30T03:03:43.293Z,7.95
2022-10-30T03:06:11.703Z,7.55
2022-10-30T03:08:38.049Z,6.95
2022-10-30T03:11:08.022Z,7.82
2022-10-30T03:13:35.744Z,7.57
2022-10-30T03:16:04.223Z,7.32
2022-10-30T03:18:30.598Z,6.90
2022-10-30T03:21:02.101Z,6.97
2022-10-30T03:23:29.062Z,7.47
2022-10-30T03:25:57.232Z,7.43
2022-10-30T03:28:26.094Z,7.32
2022-10-30T03:30:58.469Z,7.97
2022-10-30T03:33:24.944Z,7.80
2022-10-30T03:35:51.614Z,7.40
2022-10-30T03:38:17.955Z,7.60
2022-10-30T03:40:44.258Z,7.60
2022-10-30T03:43:10.598Z,7.82
2022-10-30T03:45:36.899Z,7.18
2022-10-30T03:48:05.256Z,8.02
2022-10-30T03:50:32.554Z,7.57
2022-10-30T03:52:58.937Z,7.07
2022-10-30T03:55:25.839Z,7.28
2022-10-30T03:57:52.163Z,8.15
2022-10-30T04:00:18.957Z,7.07
2022-10-30T04:02:49.907Z,7.75
2022-10-30T04:05:18.812Z,7.57
2022-10-30T04:07:45.547Z,7.40
2022-10-30T04:10:13.118Z,7.65
2022-10-30T04:12:39.475Z,7.65
2022-10-30T04:15:07.602Z,7.30
2022-10-30T04:17:34.662Z,8.43
2022-10-30T04:20:01.002Z,7.10
2022-10-30T04:22:27.795Z,7.25
2022-10-30T04:24:54.116Z,7.55
2022-10-30T04:27:20.627Z,7.20
2022-10-30T04:29:47.151Z,8.23
2022-10-30T04:32:13.965Z,7.22
2022-10-30T04:34:40.298Z,7.40
2022-10-30T04:37:07.016Z,7.68
2022-10-30T04:39:33.502Z,7.70
2022-10-30T04:41:59.831Z,7.53
2022-10-30T04:44:26.130Z,7.88
2022-10-30T04:46:52.435Z,7.90
2022-10-30T04:49:18.738Z,7.32
2022-10-30T04:51:45.055Z,8.65
2022-10-30T04:54:11.354Z,8.15
2022-10-30T04:56:37.686Z,8.60
2022-10-30T04:59:04.052Z,8.10
2022-10-30T05:01:30.429Z,8.55
2022-10-30T05:03:56.778Z,7.47
2022-10-30T05:06:26.503Z,8.07
2022-10-30T05:08:52.987Z,8.02
2022-10-30T05:11:19.524Z,8.00
2022-10-30T05:13:45.821Z,7.72
2022-10-30T05:16:12.136Z,8.20
2022-10-30T05:18:38.432Z,8.57
2022-10-30T05:21:04.968Z,9.20
2022-10-30T05:23:31.316Z,8.07
2022-10-30T05:26:00.078Z,8.98
2022-10-30T05:28:26.401Z,8.52
2022-10-30T05:30:53.489Z,9.68
2022-10-30T05:33:19.934Z,8.88
2022-10-30T05:35:46.386Z,9.75
2022-10-30T05:38:13.304Z,8.77
2022-10-30T05:40:39.725Z,8.82
2022-10-30T05:43:06.426Z,8.88
2022-10-30T05:45:32.799Z,8.95
2022-10-30T05:48:01.824Z,8.77
2022-10-30T05:50:29.133Z,8.60
2022-10-30T05:52:56.674Z,9.23
2022-10-30T05:55:23.315Z,9.38
2022-10-30T05:57:49.618Z,9.10
2022-10-30T06:00:16.286Z,8.80
2022-10-30T06:02:42.672Z,8.93
2022-10-30T06:05:09.070Z,8.93
2022-10-30T06:07:35.349Z,8.55
2022-10-30T06:10:01.637Z,9.90
2022-10-30T06:12:27.943Z,10.07
2022-10-30T06:14:54.234Z,10.43
2022-10-30T06:17:20.549Z,8.73
2022-10-30T06:19:46.871Z,10.10
2022-10-30T06:22:13.193Z,9.70
2022-10-30T06:24:39.509Z,9.20
2022-10-30T06:27:05.892Z,9.52
2022-10-30T06:29:32.186Z,9.32
2022-10-30T06:32:00.831Z,9.77
2022-10-30T06:34:30.210Z,9.88
2022-10-30T06:36:56.571Z,9.65
2022-10-30T06:39:22.937Z,9.80
2022-10-30T06:41:49.253Z,9.20
2022-10-30T06:44:15.557Z,9.90
2022-10-30T06:46:41.910Z,9.35
2022-10-30T06:49:08.268Z,9.38
2022-10-30T06:51:34.621Z,9.40
2022-10-30T06:54:00.929Z,10.20
2022-10-30T06:56:27.242Z,9.70
2022-10-30T06:58:53.575Z,10.40
2022-10-30T07:01:22.731Z,10.40
2022-10-30T07:03:49.079Z,10.27
2022-10-30T07:06:15.420Z,10.73
2022-10-30T07:08:41.799Z,9.95
2022-10-30T07:11:08.107Z,10.07
2022-10-30T07:13:35.417Z,10.48
2022-10-30T07:16:01.734Z,10.75
2022-10-30T07:18:28.047Z,10.13
2022-10-30T07:20:55.566Z,10.13
2022-10-30T07:23:22.119Z,9.35
2022-10-30T07:25:48.435Z,10.25
2022-10-30T07:28:14.866Z,8.88
2022-10-30T07:30:41.181Z,10.30
2022-10-30T07:33:09.172Z,9.40
2022-10-30T07:35:36.405Z,9.93
2022-10-30T07:38:04.776Z,8.98
2022-10-30T07:40:31.954Z,8.68
2022-10-30T07:43:00.630Z,8.88
2022-10-30T07:45:27.681Z,8.25
2022-10-30T07:47:54.643Z,8.98
2022-10-30T07:50:21.194Z,8.98
2022-10-30T07:52:47.751Z,9.07
2022-10-30T07:55:14.396Z,7.72
2022-10-30T07:57:42.337Z,8.63
2022-10-30T08:00:11.544Z,8.02
2022-10-30T08:02:38.105Z,7.88
2022-10-30T08:05:05.660Z,8.10
2022-10-30T08:07:33.965Z,9.13
2022-10-30T08:10:00.352Z,7.60
2022-10-30T08:12:27.288Z,7.57
2022-10-30T08:14:53.861Z,6.90
2022-10-30T08:17:21.185Z,7.25
2022-10-30T08:19:47.606Z,8.10
2022-10-30T08:22:13.969Z,7.75
2022-10-30T08:24:40.301Z,7.65
2022-10-30T08:27:06.785Z,8.00
2022-10-30T08:29:33.207Z,7.28
2022-10-30T08:31:59.488Z,7.30
2022-10-30T08:34:25.918Z,7.63
2022-10-30T08:36:52.477Z,7.75
2022-10-30T08:39:19.160Z,8.77
2022-10-30T08:41:45.997Z,7.63
2022-10-30T08:44:12.664Z,7.10
2022-10-30T08:46:38.973Z,6.47
2022-10-30T08:49:05.456Z,6.57
2022-10-30T08:51:33.420Z,7.00
2022-10-30T08:54:00.220Z,6.10
2022-10-30T08:56:26.989Z,6.32
2022-10-30T08:58:53.423Z,6.20
2022-10-30T09:01:19.859Z,6.35
2022-10-30T09:03:46.235Z,6.50
2022-10-30T09:06:12.553Z,6.22
2022-10-30T09:08:38.901Z,7.07
2022-10-30T09:11:05.518Z,6.15
2022-10-30T09:13:31.834Z,5.53
2022-10-30T09:16:01.284Z,5.50
2022-10-30T09:18:28.309Z,6.40
2022-10-30T09:20:54.653Z,6.13
2022-10-30T09:23:21.065Z,6.07
2022-10-30T09:25:47.408Z,5.50
2022-10-30T09:28:13.768Z,5.30
2022-10-30T09:30:40.073Z,5.85
2022-10-30T09:33:06.404Z,6.03
2022-10-30T09:35:32.745Z,5.55
2022-10-30T09:37:59.339Z,5.55
2022-10-30T09:40:44.258Z,5.95
2022-10-30T09:43:48.311Z,5.82
2022-10-30T09:46:23.419Z,5.82
2022-10-30T09:49:04.879Z,4.82
2022-10-30T09:51:43.383Z,5.43
2022-10-30T09:54:22.026Z,5.10
2022-10-30T09:56:59.528Z,5.57
2022-10-30T09:59:38.657Z,4.82
2022-10-30T10:02:11.066Z,5.50
2022-10-30T10:04:44.570Z,4.30
2022-10-30T10:07:21.430Z,4.88
2022-10-30T10:09:52.455Z,5.35
2022-10-30T10:12:43.668Z,4.70
2022-10-30T10:15:24.950Z,4.57
2022-10-30T10:17:51.798Z,4.50
2022-10-30T10:20:32.059Z,4.68
2022-10-30T10:23:02.235Z,5.60
2022-10-30T10:25:30.951Z,4.97
2022-10-30T10:28:36.808Z,5.28
2022-10-30T10:31:12.320Z,5.07
2022-10-30T10:33:57.827Z,4.75
2022-10-30T10:36:35.087Z,4.57
2022-10-30T10:39:30.256Z,5.00
2022-10-30T10:42:12.092Z,4.72
2022-10-30T10:44:46.493Z,5.10
2022-10-30T10:47:12.757Z,4.78
2022-10-30T10:49:52.868Z,5.25
2022-10-30T10:52:24.032Z,4.35
2022-10-30T10:55:00.845Z,4.70
2022-10-30T10:57:36.534Z,4.68
2022-10-30T11:00:20.707Z,4.82
2022-10-30T11:03:13.608Z,5.37
2022-10-30T11:05:51.494Z,4.95
2022-10-30T11:08:33.111Z,4.97
2022-10-30T11:11:02.074Z,5.60
2022-10-30T11:13:35.876Z,4.93
2022-10-30T11:16:05.098Z,4.97
2022-10-30T11:18:32.034Z,5.25
2022-10-30T11:21:23.721Z,5.45
2022-10-30T11:23:50.826Z,5.05
2022-10-30T11:26:17.087Z,5.47
2022-10-30T11:29:12.185Z,5.40
2022-10-30T11:31:41.193Z,5.72
2022-10-30T11:34:19.409Z,4.90
2022-10-30T11:36:51.088Z,5.43
2022-10-30T11:39:18.426Z,4.47
2022-10-30T11:41:56.749Z,4.90
2022-10-30T11:44:28.805Z,5.20
2022-10-30T11:46:55.952Z,6.93
2022-10-30T11:49:33.405Z,6.22
2022-10-30T11:52:00.428Z,5.18
2022-10-30T11:54:27.232Z,6.03
2022-10-30T11:56:54.572Z,6.00
2022-10-30T11:59:23.818Z,6.07
2022-10-30T12:02:21.659Z,5.57
2022-10-30T12:04:50.254Z,5.50
2022-10-30T12:07:24.312Z,5.05
2022-10-30T12:09:51.009Z,5.10
2022-10-30T12:12:22.114Z,5.55
2022-10-30T12:14:48.562Z,6.25
2022-10-30T12:17:17.737Z,6.10
2022-10-30T12:19:50.410Z,5.68
2022-10-30T12:22:32.628Z,6.25
2022-10-30T12:25:02.801Z,5.38
2022-10-30T12:27:32.143Z,5.15
2022-10-30T12:30:10.015Z,5.22
2022-10-30T12:32:50.239Z,5.13
2022-10-30T12:35:37.180Z,5.03
2022-10-30T12:38:09.606Z,5.40
2022-10-30T12:40:42.697Z,5.90
2022-10-30T12:43:26.094Z,4.75
2022-10-30T12:46:01.453Z,5.32
2022-10-30T12:48:41.662Z,4.82
2022-10-30T12:51:24.245Z,4.82
2022-10-30T12:54:14.945Z,5.00
2022-10-30T12:56:45.880Z,4.78
2022-10-30T12:59:32.978Z,5.35
2022-10-30T13:02:23.945Z,5.78
2022-10-30T13:04:57.255Z,5.50
2022-10-30T13:07:27.994Z,4.93
2022-10-30T13:10:18.769Z,5.43
2022-10-30T13:12:48.538Z,5.38
2022-10-30T13:15:22.329Z,5.57
2022-10-30T13:17:49.601Z,5.80
2022-10-30T13:20:16.374Z,6.25
2022-10-30T13:22:49.029Z,5.85
2022-10-30T13:25:24.992Z,5.38
2022-10-30T13:28:01.788Z,5.15
2022-10-30T13:30:38.982Z,5.85
2022-10-30T13:33:22.508Z,6.47
2022-10-30T13:36:03.040Z,6.13
2022-10-30T13:38:42.231Z,5.82
2022-10-30T13:41:37.881Z,6.03
2022-10-30T13:44:22.158Z,5.50
2022-10-30T13:46:58.572Z,5.20
2022-10-30T13:50:00.126Z,4.95
2022-10-30T13:52:29.655Z,4.95
2022-10-30T13:55:14.307Z,6.10
2022-10-30T13:57:52.562Z,5.13
2022-10-30T14:00:22.014Z,4.60
2022-10-30T14:03:25.918Z,5.43
2022-10-30T14:05:58.123Z,5.22
2022-10-30T14:08:40.401Z,5.57
2022-10-30T14:11:10.778Z,5.47
2022-10-30T14:13:57.114Z,5.75
2022-10-30T14:16:39.945Z,5.47
2022-10-30T14:19:11.294Z,4.70
2022-10-30T14:21:42.990Z,5.00
2022-10-30T14:24:14.237Z,4.63
2022-10-30T14:26:49.993Z,5.72
2022-10-30T14:29:34.107Z,5.25
2022-10-30T14:32:12.968Z,5.70
2022-10-30T14:34:57.081Z,5.93
2022-10-30T14:37:23.351Z,6.53
2022-10-30T14:39:51.534Z,6.28
2022-10-30T14:42:40.904Z,5.53
2022-10-30T14:45:28.154Z,6.28
2022-10-30T14:47:56.703Z,4.85
2022-10-30T14:50:49.035Z,5.97
2022-10-30T14:53:46.014Z,6.60
2022-10-30T14:59:12.258Z,6.32
2022-10-30T15:01:44.881Z,6.07
2022-10-30T15:04:26.268Z,6.63
2022-10-30T15:07:11.450Z,6.57
2022-10-30T15:12:24.270Z,6.13
2022-10-30T15:15:00.007Z,6.13
2022-10-30T15:17:33.957Z,6.53
2022-10-30T15:20:04.686Z,5.95
2022-10-30T15:22:33.361Z,6.72
2022-10-30T15:25:01.674Z,5.93
2022-10-30T15:27:29.558Z,5.72
2022-10-30T15:30:00.577Z,6.10
2022-10-30T15:32:27.214Z,6.82
2022-10-30T15:35:01.705Z,6.60
2022-10-30T15:37:28.736Z,7.30
2022-10-30T15:40:16.879Z,6.80
2022-10-30T15:42:43.961Z,6.95
2022-10-30T15:45:18.132Z,7.13
2022-10-30T15:48:06.688Z,7.63
2022-10-30T15:50:39.588Z,6.68
2022-10-30T15:53:06.794Z,7.15
2022-10-30T15:55:33.473Z,6.95
2022-10-30T15:58:13.286Z,7.65
2022-10-30T16:00:39.864Z,8.65
2022-10-30T16:03:16.334Z,8.52
2022-10-30T16:05:42.835Z,8.63
2022-10-30T16:08:15.888Z,7.20
2022-10-30T16:10:45.266Z,7.53
2022-10-30T16:13:21.761Z,7.80
2022-10-30T16:15:48.493Z,7.28
2022-10-30T16:18:28.520Z,7.97
2022-10-30T16:20:58.159Z,7.68
2022-10-30T16:23:24.577Z,7.35
2022-10-30T16:25:55.837Z,7.43
2022-10-30T16:28:28.210Z,7.75
2022-10-30T16:30:58.714Z,7.55
2022-10-30T16:33:28.023Z,7.40
2022-10-30T16:35:55.943Z,7.53
2022-10-30T16:38:24.546Z,7.93
2022-10-30T16:40:51.469Z,7.68
2022-10-30T16:43:29.583Z,7.93
2022-10-30T16:46:24.513Z,7.63
2022-10-30T16:48:58.172Z,8.75
2022-10-30T16:51:24.650Z,8.05
2022-10-30T16:53:52.513Z,8.38
2022-10-30T16:56:29.147Z,7.57
2022-10-30T16:59:13.470Z,8.27
2022-10-30T17:01:40.120Z,8.70
2022-10-30T17:04:06.684Z,9.75
2022-10-30T17:06:43.016Z,9.93
2022-10-30T17:09:23.959Z,11.85
2022-10-30T17:12:09.306Z,11.45
2022-10-30T17:14:46.933Z,11.38
2022-10-30T17:17:42.476Z,12.10
2022-10-30T17:23:05.910Z,24.95
2022-10-30T17:25:37.678Z,22.55
2022-10-30T17:28:05.120Z,21.75
2022-10-30T17:30:34.339Z,18.52
2022-10-30T17:33:03.508Z,15.60
2022-10-30T17:35:30.190Z,13.27
2022-10-30T17:37:59.740Z,11.68
2022-10-30T17:40:29.262Z,10.82
2022-10-30T17:42:55.597Z,10.20
2022-10-30T17:45:22.282Z,11.35
2022-10-30T17:47:48.602Z,11.68
2022-10-30T17:50:14.984Z,10.43
2022-10-30T17:52:41.283Z,10.45
2022-10-30T17:55:22.397Z,10.65
2022-10-30T17:57:48.764Z,10.40
2022-10-30T18:00:15.295Z,10.60
2022-10-30T18:02:41.607Z,10.02
2022-10-30T18:05:17.994Z,10.02
2022-10-30T18:07:44.674Z,11.85
2022-10-30T18:10:12.018Z,10.77
2022-10-30T18:12:38.405Z,10.77
2022-10-30T18:15:27.505Z,11.23
2022-10-30T18:17:54.227Z,11.52
2022-10-30T18:20:21.289Z,13.13
2022-10-30T18:22:47.784Z,13.82
2022-10-30T18:25:22.184Z,12.05
2022-10-30T18:27:48.500Z,12.13
2022-10-30T18:30:16.136Z,12.38
2022-10-30T18:32:42.674Z,12.40
2022-10-30T18:35:13.764Z,12.48
2022-10-30T18:37:40.315Z,12.00
2022-10-30T18:40:07.182Z,11.52
2022-10-30T18:42:33.485Z,12.70
2022-10-30T18:44:59.809Z,13.32
2022-10-30T18:47:26.109Z,13.77
2022-10-30T18:49:52.540Z,13.35
2022-10-30T18:52:19.227Z,13.52
2022-10-30T18:54:45.571Z,13.13
2022-10-30T18:57:11.942Z,15.43
2022-10-30T18:59:38.278Z,14.63
2022-10-30T19:02:23.488Z,14.13
2022-10-30T19:07:16.135Z,14.00
2022-10-30T19:09:42.520Z,13.90
2022-10-30T19:12:10.443Z,14.85
2022-10-30T19:14:36.791Z,15.32
2022-10-30T19:17:03.144Z,14.38
2022-10-30T19:19:29.527Z,14.57
2022-10-30T19:21:55.876Z,14.10
2022-10-30T19:24:22.188Z,14.30
2022-10-30T19:26:48.589Z,14.18
2022-10-30T19:29:14.890Z,14.57
2022-10-30T19:31:41.196Z,14.32
2022-10-30T19:34:07.519Z,14.75
2022-10-30T19:36:36.811Z,15.23
2022-10-30T19:39:14.336Z,13.75
2022-10-30T19:41:40.721Z,15.77
2022-10-30T19:44:07.067Z,15.73
2022-10-30T19:46:33.660Z,15.90
2022-10-30T19:49:00.642Z,16.33
2022-10-30T19:51:28.504Z,15.85
2022-10-30T19:53:55.077Z,15.00
2022-10-30T19:56:21.727Z,13.48
2022-10-30T19:58:48.225Z,12.88
2022-10-30T20:01:14.777Z,13.70
2022-10-30T20:03:41.237Z,13.23
2022-10-30T20:06:10.372Z,13.57
2022-10-30T20:08:36.737Z,13.88
2022-10-30T20:11:03.077Z,13.80
2022-10-30T20:13:29.837Z,13.27
2022-10-30T20:15:58.964Z,14.02
2022-10-30T20:18:30.428Z,13.23
2022-10-30T20:21:00.584Z,13.40
2022-10-30T20:23:27.746Z,13.25
2022-10-30T20:26:02.915Z,14.30
2022-10-30T20:28:37.888Z,13.55
2022-10-30T20:31:05.435Z,14.68
2022-10-30T20:33:31.839Z,14.73
2022-10-30T20:35:58.208Z,14.98
2022-10-30T20:38:26.771Z,13.30
2022-10-30T20:40:53.786Z,12.70
2022-10-30T20:43:24.863Z,13.65
2022-10-30T20:45:51.278Z,12.80
2022-10-30T20:48:17.599Z,11.90
2022-10-30T20:50:49.137Z,11.82
2022-10-30T20:53:17.041Z,12.27
2022-10-30T20:55:43.604Z,12.45
2022-10-30T20:58:10.041Z,11.40
2022-10-30T21:00:36.450Z,11.02
2022-10-30T21:03:04.760Z,11.65
2022-10-30T21:05:43.790Z,11.80
2022-10-30T21:08:12.499Z,11.60
2022-10-30T21:10:39.814Z,10.70
2022-10-30T21:13:08.913Z,11.07
2022-10-30T21:15:41.130Z,11.05
2022-10-30T21:18:08.430Z,10.95
2022-10-30T21:20:35.889Z,11.30
2022-10-30T21:23:02.249Z,10.95
2022-10-30T21:25:28.691Z,9.77
2022-10-30T21:27:58.582Z,11.25
2022-10-30T21:30:25.112Z,11.35
2022-10-30T21:32:51.585Z,10.77
2022-10-30T21:35:18.296Z,10.18
2022-10-30T21:37:44.706Z,10.57
2022-10-30T21:40:11.781Z,10.55
2022-10-30T21:42:38.134Z,10.43
2022-10-30T21:45:05.437Z,9.95
2022-10-30T21:47:31.846Z,9.65
2022-10-30T21:49:58.268Z,10.38
2022-10-30T21:52:24.621Z,9.77
2022-10-30T21:54:50.999Z,10.40
2022-10-30T21:57:17.333Z,9.45
2022-10-30T21:59:43.674Z,9.95
2022-10-30T22:02:13.902Z,10.48
2022-10-30T22:04:40.319Z,9.85
2022-10-30T22:07:06.747Z,9.27
2022-10-30T22:09:33.089Z,9.25
2022-10-30T22:11:59.383Z,8.82
2022-10-30T22:14:25.769Z,9.75
2022-10-30T22:16:52.180Z,9.32
2022-10-30T22:19:18.578Z,9.25
2022-10-30T22:21:44.943Z,9.55
2022-10-30T22:24:11.313Z,8.15
2022-10-30T22:26:37.717Z,8.88
2022-10-30T22:29:04.047Z,8.95
2022-10-30T22:31:30.540Z,8.40
2022-10-30T22:33:59.400Z,9.38
2022-10-30T22:36:28.366Z,8.60
2022-10-30T22:39:10.670Z,9.55
2022-10-30T22:41:38.350Z,9.00
2022-10-30T22:44:07.105Z,8.80
2022-10-30T22:46:33.674Z,9.52
2022-10-30T22:49:00.184Z,9.63
2022-10-30T22:51:26.921Z,10.23
2022-10-30T22:53:58.479Z,10.70
2022-10-30T22:56:26.991Z,11.25
2022-10-30T22:58:53.659Z,10.10
2022-10-30T23:01:28.857Z,10.30
2022-10-30T23:03:56.955Z,10.57
2022-10-30T23:06:24.105Z,9.02
2022-10-30T23:08:55.439Z,9.55
2022-10-30T23:11:22.503Z,9.95
2022-10-30T23:13:49.523Z,10.68
2022-10-30T23:16:18.235Z,9.20
2022-10-30T23:18:45.573Z,9.35
2022-10-30T23:21:14.315Z,9.68
2022-10-30T23:23:42.333Z,12.68
2022-10-30T23:26:13.534Z,10.82
2022-10-30T23:28:39.964Z,12.05
2022-10-30T23:31:15.809Z,12.10
2022-10-30T23:33:42.138Z,11.68
2022-10-30T23:36:08.597Z,13.38
2022-10-30T23:38:34.906Z,13.10
2022-10-30T23:41:01.193Z,13.43
2022-10-30T23:43:27.517Z,14.05
2022-10-30T23:45:53.842Z,14.38
2022-10-30T23:48:20.177Z,15.55
2022-10-30T23:50:46.486Z,14.30
2022-10-30T23:53:12.793Z,15.55
2022-10-30T23:55:39.149Z,15.30
2022-10-30T23:58:05.561Z,17.00
